Time;durP1;ratioP1;P1;durP2;ratioP2;P2;SDS_P1;SDS_P2;PMS_P1;PMS_P2;Temp;Humidity;BMP_temperature;BMP_pressure;BME280_temperature;BME280_humidity;BME280_pressure;Samples;Min_cycle;Max_cycle;Signal;HPM_P1;HPM_P2
2021/11/23 00:02:25;;;;;;;12.15;6.32;;;;;;;1.41;100.00;101831.59;5072720;28;20058;-78
2021/11/23 00:05:06;;;;;;;13.93;6.47;;;;;;;1.43;100.00;101819.47;5064384;28;20123;-78
2021/11/23 00:07:37;;;;;;;11.38;5.85;;;;;;;1.43;100.00;101824.66;5068875;28;20082;-78
2021/11/23 00:10:09;;;;;;;14.32;6.28;;;;;;;1.46;100.00;101827.25;5023734;28;20056;-77
2021/11/23 00:13:01;;;;;;;10.65;6.88;;;;;;;1.38;100.00;101835.91;5064740;28;20143;-79
2021/11/23 00:15:35;;;;;;;14.52;6.18;;;;;;;1.35;100.00;101836.81;5044996;28;20483;-78
2021/11/23 00:18:16;;;;;;;10.95;6.63;;;;;;;1.33;100.00;101838.53;5039585;28;20044;-78
2021/11/23 00:20:50;;;;;;;12.43;7.20;;;;;;;1.25;100.00;101825.56;5066921;28;20056;-78
2021/11/23 00:23:22;;;;;;;10.98;6.68;;;;;;;1.30;100.00;101833.31;5040100;28;20113;-80
2021/11/23 00:25:50;;;;;;;11.07;7.13;;;;;;;1.22;100.00;101830.75;5041249;28;20048;-79
2021/11/23 00:28:22;;;;;;;9.80;7.05;;;;;;;1.18;100.00;101823.00;5046727;28;20059;-78
2021/11/23 00:31:00;;;;;;;11.05;7.00;;;;;;;1.15;100.00;101822.97;5029091;28;20047;-78
2021/11/23 00:33:40;;;;;;;12.13;7.25;;;;;;;1.14;100.00;101819.53;5064084;28;20048;-78
2021/11/23 00:36:24;;;;;;;9.95;6.47;;;;;;;1.18;100.00;101818.66;5060306;28;20059;-79
2021/11/23 00:38:55;;;;;;;11.55;6.95;;;;;;;1.16;100.00;101811.72;5047036;28;20505;-78
2021/11/23 00:41:22;;;;;;;16.08;7.15;;;;;;;1.11;100.00;101814.34;5063508;28;20567;-77
2021/11/23 00:43:51;;;;;;;12.68;6.85;;;;;;;1.19;100.00;101819.53;5061597;28;20054;-79
2021/11/23 00:46:18;;;;;;;15.10;7.38;;;;;;;1.11;100.00;101813.47;5029592;28;20048;-78
2021/11/23 00:48:50;;;;;;;13.73;6.90;;;;;;;1.19;100.00;101816.94;5047935;28;20065;-78
2021/11/23 00:51:18;;;;;;;13.93;7.75;;;;;;;1.17;100.00;101813.44;5073978;28;20054;-78
2021/11/23 00:53:45;;;;;;;11.35;7.10;;;;;;;1.15;100.00;101805.69;5023147;28;20108;-79
2021/11/23 00:56:12;;;;;;;9.88;6.88;;;;;;;1.11;100.00;101796.19;5052610;28;20079;-79
2021/11/23 00:58:40;;;;;;;14.32;7.38;;;;;;;1.05;100.00;101797.94;5032976;28;20041;-78
2021/11/23 01:01:07;;;;;;;13.63;7.88;;;;;;;1.07;100.00;101794.44;5061038;28;20625;-79
2021/11/23 01:03:35;;;;;;;13.70;7.55;;;;;;;1.07;100.00;101797.03;5020538;28;20053;-79
2021/11/23 01:06:02;;;;;;;12.93;7.40;;;;;;;1.08;100.00;101797.91;5066363;28;20560;-80
2021/11/23 01:08:30;;;;;;;14.65;7.50;;;;;;;1.15;100.00;101794.44;5047994;28;20052;-78
2021/11/23 01:10:57;;;;;;;11.55;7.15;;;;;;;1.16;100.00;101794.44;5046309;28;20052;-78
2021/11/23 01:13:26;;;;;;;10.25;7.72;;;;;;;1.22;100.00;101793.59;5039405;28;20045;-80
2021/11/23 01:15:53;;;;;;;12.70;7.00;;;;;;;1.22;100.00;101791.84;5046519;28;20136;-78
2021/11/23 01:18:22;;;;;;;16.60;8.30;;;;;;;1.26;100.00;101784.91;5051445;28;20614;-78
2021/11/23 01:20:50;;;;;;;15.18;9.27;;;;;;;1.26;100.00;101779.72;5022238;28;20160;-77
2021/11/23 01:23:17;;;;;;;12.55;8.45;;;;;;;1.27;100.00;101777.13;5045533;28;20087;-79
2021/11/23 01:25:46;;;;;;;11.02;7.45;;;;;;;1.24;100.00;101776.28;5046354;28;20060;-79
2021/11/23 01:28:13;;;;;;;11.93;7.97;;;;;;;1.18;100.00;101779.75;5050862;28;20131;-79
2021/11/23 01:30:41;;;;;;;16.45;7.68;;;;;;;1.28;100.00;101765.03;5063098;28;20056;-78
2021/11/23 01:33:10;;;;;;;13.77;7.72;;;;;;;1.23;100.00;101780.59;5023799;28;20162;-79
2021/11/23 01:35:38;;;;;;;15.90;8.10;;;;;;;1.22;100.00;101776.28;5043311;28;20144;-78
2021/11/23 01:38:05;;;;;;;16.70;8.80;;;;;;;1.26;100.00;101775.41;5083730;28;20122;-79
2021/11/23 01:40:33;;;;;;;16.20;8.48;;;;;;;1.29;100.00;101782.31;5060958;28;20716;-78
2021/11/23 01:43:05;;;;;;;12.48;7.32;;;;;;;1.29;100.00;101764.16;5050039;28;20099;-78
2021/11/23 01:45:36;;;;;;;20.00;7.65;;;;;;;1.32;100.00;101761.56;5045374;28;20048;-79
2021/11/23 01:48:06;;;;;;;16.35;7.70;;;;;;;1.30;100.00;101759.81;5048537;28;20821;-78
2021/11/23 01:50:34;;;;;;;16.23;6.95;;;;;;;1.39;100.00;101755.47;5045474;28;20059;-79
2021/11/23 01:53:04;;;;;;;18.15;7.70;;;;;;;1.40;100.00;101746.00;5058192;28;20036;-79
2021/11/23 01:55:33;;;;;;;13.85;7.80;;;;;;;1.43;100.00;101746.81;5042587;28;20517;-78
2021/11/23 01:58:06;;;;;;;15.10;8.20;;;;;;;1.46;100.00;101740.75;5044425;28;20063;-79
2021/11/23 02:00:34;;;;;;;16.83;7.60;;;;;;;1.54;100.00;101753.72;5062919;28;20466;-78
2021/11/23 02:03:03;;;;;;;12.45;7.53;;;;;;;1.54;100.00;101764.09;5060041;28;20055;-78
2021/11/23 02:05:36;;;;;;;12.13;7.82;;;;;;;1.58;100.00;101760.63;5047143;28;20131;-78
2021/11/23 02:08:10;;;;;;;13.68;7.30;;;;;;;1.60;100.00;101761.47;5048793;28;20052;-79
2021/11/23 02:10:40;;;;;;;13.18;7.75;;;;;;;1.66;100.00;101758.84;5047406;28;20131;-80
2021/11/23 02:13:13;;;;;;;12.80;6.93;;;;;;;1.70;100.00;101755.38;5045515;28;20196;-79
2021/11/23 02:15:48;;;;;;;12.95;6.80;;;;;;;1.67;100.00;101763.19;5069767;28;20422;-79
2021/11/23 02:18:27;;;;;;;14.07;8.02;;;;;;;1.70;100.00;101758.81;5068264;28;20071;-78
2021/11/23 02:20:59;;;;;;;13.45;7.40;;;;;;;1.74;100.00;101757.09;5066497;28;20045;-78
2021/11/23 02:23:29;;;;;;;16.95;7.43;;;;;;;1.80;100.00;101757.03;5068050;28;20495;-79
2021/11/23 02:26:00;;;;;;;8.88;6.50;;;;;;;1.82;100.00;101754.47;5041743;28;20109;-79
2021/11/23 02:28:33;;;;;;;18.00;7.50;;;;;;;1.85;100.00;101757.91;5036417;28;20049;-78
2021/11/23 02:31:08;;;;;;;10.55;6.70;;;;;;;1.91;100.00;101738.84;5064160;28;20048;-79
2021/11/23 02:33:40;;;;;;;17.63;8.05;;;;;;;1.82;100.00;101744.94;5050508;28;20079;-78
2021/11/23 02:36:09;;;;;;;19.08;8.02;;;;;;;1.85;100.00;101734.53;5064283;28;20126;-78
2021/11/23 02:38:49;;;;;;;14.48;7.38;;;;;;;1.92;100.00;101735.38;5033384;28;20751;-79
2021/11/23 02:41:17;;;;;;;16.63;8.63;;;;;;;1.90;100.00;101731.94;5041847;28;20071;-79
2021/11/23 02:43:49;;;;;;;10.27;6.72;;;;;;;1.85;100.00;101736.28;5040113;28;20052;-78
2021/11/23 02:46:19;;;;;;;11.73;7.75;;;;;;;1.86;100.00;101736.25;5048796;28;20094;-77
2021/11/23 02:48:50;;;;;;;12.88;7.38;;;;;;;1.96;100.00;101730.13;5064276;28;20063;-79
2021/11/23 02:51:22;;;;;;;14.52;7.40;;;;;;;2.05;100.00;101728.38;5056904;28;20037;-78
2021/11/23 02:53:57;;;;;;;12.05;7.22;;;;;;;2.10;100.00;101729.19;5043844;28;20041;-79
2021/11/23 02:56:26;;;;;;;17.27;7.43;;;;;;;2.15;100.00;101723.09;5047208;28;20075;-79
2021/11/23 02:58:55;;;;;;;11.95;6.05;;;;;;;2.36;100.00;101711.69;5038622;28;20052;-78
2021/11/23 03:01:27;;;;;;;10.13;5.95;;;;;;;2.29;100.00;101707.41;5043070;28;20124;-79
2021/11/23 03:03:56;;;;;;;15.60;6.60;;;;;;;2.36;100.00;101714.28;5072871;28;20479;-78
2021/11/23 03:06:26;;;;;;;13.27;6.22;;;;;;;2.47;100.00;101722.00;5067992;28;20060;-78
2021/11/23 03:08:55;;;;;;;9.93;6.57;;;;;;;2.54;100.00;101727.13;5048857;28;20118;-79
2021/11/23 03:11:25;;;;;;;14.70;6.20;;;;;;;2.56;100.00;101721.06;5048449;28;20448;-78
2021/11/23 03:14:12;;;;;;;13.30;6.13;;;;;;;2.63;100.00;101720.16;5065598;28;20049;-79
2021/11/23 03:17:05;;;;;;;12.25;5.90;;;;;;;2.71;100.00;101715.75;5073450;28;20126;-62
2021/11/23 03:19:32;;;;;;;14.23;6.30;;;;;;;2.73;100.00;101717.44;5071458;28;20135;-62
2021/11/23 03:22:00;;;;;;;14.88;7.50;;;;;;;2.82;100.00;101719.09;5071092;28;20107;-62
2021/11/23 03:24:27;;;;;;;11.95;6.72;;;;;;;2.86;100.00;101723.41;5077782;28;20075;-63
2021/11/23 03:26:55;;;;;;;12.43;6.68;;;;;;;2.86;100.00;101714.75;5077984;28;20656;-60
2021/11/23 03:29:22;;;;;;;12.25;6.55;;;;;;;2.88;100.00;101710.38;5088255;22;20169;-65
2021/11/23 03:31:50;;;;;;;10.30;6.45;;;;;;;2.93;100.00;101721.63;5066134;28;20045;-65
2021/11/23 03:34:18;;;;;;;11.77;6.35;;;;;;;2.97;100.00;101716.38;5007795;28;20099;-65
2021/11/23 03:36:46;;;;;;;14.70;6.75;;;;;;;3.00;100.00;101718.06;5013390;28;20072;-66
2021/11/23 03:39:14;;;;;;;11.95;7.10;;;;;;;2.97;100.00;101713.75;5023849;28;20132;-66
2021/11/23 03:41:45;;;;;;;14.07;6.95;;;;;;;3.07;100.00;101716.28;5030565;28;20041;-66
2021/11/23 03:44:13;;;;;;;17.23;7.45;;;;;;;2.97;100.00;101708.56;5025420;28;20633;-66
2021/11/23 03:46:40;;;;;;;11.27;7.35;;;;;;;3.02;100.00;101708.50;5033435;28;20412;-64
2021/11/23 03:49:11;;;;;;;15.60;7.80;;;;;;;3.12;100.00;101706.66;5009189;28;20401;-66
2021/11/23 03:51:39;;;;;;;15.10;7.07;;;;;;;3.13;100.00;101718.78;5038760;28;20145;-65
2021/11/23 03:54:12;;;;;;;16.10;7.65;;;;;;;3.14;100.00;101705.75;5013629;28;20053;-68
2021/11/23 03:56:41;;;;;;;15.57;7.53;;;;;;;3.13;100.00;101703.19;5041154;28;20445;-65
2021/11/23 03:59:11;;;;;;;15.05;7.57;;;;;;;3.09;100.00;101715.34;5039755;28;20041;-64
2021/11/23 04:01:39;;;;;;;16.80;8.35;;;;;;;3.15;100.00;101715.31;4992311;28;20535;-68
2021/11/23 04:04:10;;;;;;;15.32;7.63;;;;;;;3.13;100.00;101705.78;5024598;28;20056;-66
2021/11/23 04:06:38;;;;;;;17.65;8.00;;;;;;;3.09;100.00;101699.75;5008139;28;20045;-65
2021/11/23 04:09:06;;;;;;;15.60;9.40;;;;;;;3.05;100.00;101708.47;5040607;28;20091;-66
2021/11/23 04:11:38;;;;;;;14.10;7.65;;;;;;;3.15;100.00;101696.22;5026562;28;20588;-65
2021/11/23 04:14:05;;;;;;;17.42;8.02;;;;;;;3.02;100.00;101698.97;5008252;28;20075;-66
2021/11/23 04:16:42;;;;;;;14.82;8.30;;;;;;;3.05;100.00;101682.44;5010899;28;20033;-67
2021/11/23 04:19:13;;;;;;;13.82;8.20;;;;;;;3.02;100.00;101680.75;5040362;28;20095;-66
2021/11/23 04:21:42;;;;;;;18.70;8.57;;;;;;;3.03;100.00;101684.22;5024843;28;20057;-65
2021/11/23 04:24:10;;;;;;;14.73;9.00;;;;;;;3.02;100.00;101677.31;5021449;28;20041;-64
2021/11/23 04:26:41;;;;;;;16.27;8.90;;;;;;;3.09;100.00;101688.47;5035308;28;20080;-64
2021/11/23 04:29:22;;;;;;;;;;;;;;;;;;;;;
2021/11/23 04:31:58;;;;;;;17.60;9.63;;;;;;;3.10;100.00;101682.41;5011931;28;20164;-67
2021/11/23 04:34:29;;;;;;;15.77;10.60;;;;;;;3.09;100.00;101673.72;5010086;28;20567;-65
2021/11/23 04:36:59;;;;;;;17.40;9.55;;;;;;;3.09;100.00;101678.94;4993490;28;20452;-65
2021/11/23 04:39:27;;;;;;;24.23;10.55;;;;;;;3.04;100.00;101667.72;5007117;28;20108;-66
2021/11/23 04:41:59;;;;;;;19.48;10.40;;;;;;;3.02;100.00;101665.16;5032191;28;20041;-66
2021/11/23 04:44:31;;;;;;;21.60;10.23;;;;;;;3.16;100.00;101656.31;5028825;28;20127;-66
2021/11/23 04:46:58;;;;;;;16.02;9.98;;;;;;;3.07;100.00;101656.44;5027230;28;20045;-64
2021/11/23 04:49:26;;;;;;;25.60;11.05;;;;;;;2.99;100.00;101651.31;4979366;28;20081;-65
2021/11/23 04:51:53;;;;;;;19.10;10.70;;;;;;;3.06;100.00;101663.34;5031643;28;20088;-66
2021/11/23 04:54:21;;;;;;;21.10;11.10;;;;;;;3.04;100.00;101658.19;5008387;28;20042;-65
2021/11/23 04:56:49;;;;;;;24.42;11.50;;;;;;;3.03;100.00;101664.25;5012719;28;20034;-65
2021/11/23 04:59:19;;;;;;;25.38;12.45;;;;;;;3.08;100.00;101661.63;5010979;28;20041;-65
2021/11/23 05:01:52;;;;;;;16.27;11.43;;;;;;;3.17;100.00;101658.91;5009328;28;20498;-66
2021/11/23 05:04:23;;;;;;;21.90;12.45;;;;;;;3.19;100.00;101644.13;5026379;28;20453;-65
2021/11/23 05:06:53;;;;;;;21.27;11.45;;;;;;;3.21;100.00;101646.72;4998456;28;20076;-65
2021/11/23 05:09:22;;;;;;;23.92;11.70;;;;;;;3.24;100.00;101655.34;4990999;28;20045;-64
2021/11/23 05:11:52;;;;;;;24.73;12.73;;;;;;;3.24;100.00;101637.16;4993758;28;20046;-66
2021/11/23 05:14:23;;;;;;;22.40;13.43;;;;;;;3.23;100.00;101637.13;5025630;28;20149;-65
2021/11/23 05:16:50;;;;;;;26.50;13.75;;;;;;;3.34;100.00;101644.84;5008835;28;20128;-65
2021/11/23 05:19:24;;;;;;;22.73;13.90;;;;;;;3.28;100.00;101654.41;5006150;28;20041;-67
2021/11/23 05:21:51;;;;;;;23.70;13.07;;;;;;;3.29;100.00;101656.16;4994032;28;20057;-64
2021/11/23 05:24:19;;;;;;;22.48;14.55;;;;;;;3.32;100.00;101665.66;5022915;28;20057;-64
2021/11/23 05:26:46;;;;;;;24.25;13.30;;;;;;;3.37;100.00;101663.84;5027420;28;20045;-65
2021/11/23 05:29:14;;;;;;;23.00;14.70;;;;;;;3.36;100.00;101667.34;5027039;28;20418;-63
2021/11/23 05:31:41;;;;;;;26.63;14.85;;;;;;;3.31;100.00;101674.34;5022480;28;20156;-65
2021/11/23 05:34:09;;;;;;;23.05;14.82;;;;;;;3.30;100.00;101673.50;5004936;28;20072;-67
2021/11/23 05:36:36;;;;;;;19.60;14.40;;;;;;;3.32;100.00;101677.81;4995182;28;20490;-65
2021/11/23 05:39:05;;;;;;;23.35;14.02;;;;;;;3.33;100.00;101675.19;4988593;28;20057;-66
2021/11/23 05:41:33;;;;;;;24.15;14.52;;;;;;;3.36;100.00;101677.75;5029494;28;20061;-65
2021/11/23 05:44:01;;;;;;;28.20;16.20;;;;;;;3.37;100.00;101676.00;5008259;28;20072;-67
2021/11/23 05:46:28;;;;;;;30.75;15.85;;;;;;;3.42;100.00;101671.59;4996693;28;20037;-64
2021/11/23 05:48:56;;;;;;;25.50;14.70;;;;;;;3.40;100.00;101669.03;5011186;28;20129;-65
2021/11/23 05:51:24;;;;;;;28.58;15.65;;;;;;;3.47;100.00;101673.28;5010649;28;20061;-65
2021/11/23 05:53:54;;;;;;;31.17;16.83;;;;;;;3.53;100.00;101680.16;5010696;28;20219;-65
2021/11/23 05:56:23;;;;;;;25.73;15.82;;;;;;;3.50;100.00;101673.22;4992200;28;20038;-64
2021/11/23 05:58:54;;;;;;;26.67;16.20;;;;;;;3.52;100.00;101671.47;5010862;28;20056;-65
2021/11/23 06:01:22;;;;;;;26.73;16.25;;;;;;;3.53;100.00;101669.75;5005853;28;20152;-64
2021/11/23 06:03:50;;;;;;;33.72;16.45;;;;;;;3.61;100.00;101669.66;5029355;28;20073;-66
2021/11/23 06:06:18;;;;;;;33.70;16.55;;;;;;;3.58;100.00;101674.88;5011664;28;20069;-65
2021/11/23 06:08:48;;;;;;;27.60;15.85;;;;;;;3.63;100.00;101679.13;4992449;28;20123;-65
2021/11/23 06:11:16;;;;;;;26.83;17.15;;;;;;;3.72;100.00;101681.63;4977640;28;20108;-66
2021/11/23 06:13:48;;;;;;;28.75;16.70;;;;;;;3.64;100.00;101677.41;5027388;28;20513;-64
2021/11/23 06:16:16;;;;;;;27.48;16.88;;;;;;;3.63;100.00;101693.91;5013797;28;20053;-65
2021/11/23 06:18:44;;;;;;;30.27;18.08;;;;;;;3.65;100.00;101695.63;5028216;28;20129;-64
2021/11/23 06:21:11;;;;;;;28.83;16.40;;;;;;;3.72;100.00;101699.00;5018378;28;20048;-65
2021/11/23 06:23:40;;;;;;;31.85;16.77;;;;;;;3.71;100.00;101695.53;4991228;28;20224;-65
2021/11/23 06:26:08;;;;;;;27.58;17.50;;;;;;;3.69;100.00;101696.41;4993837;28;20128;-65
2021/11/23 06:28:38;;;;;;;31.15;17.45;;;;;;;3.70;100.00;101699.03;4975604;28;20049;-64
2021/11/23 06:31:05;;;;;;;31.42;18.63;;;;;;;3.70;100.00;101700.78;5025067;28;20099;-67
2021/11/23 06:33:33;;;;;;;34.20;19.17;;;;;;;3.71;100.00;101708.56;5007822;28;20124;-64
2021/11/23 06:36:01;;;;;;;40.63;20.05;;;;;;;3.72;100.00;101701.59;5027635;28;20045;-65
2021/11/23 06:38:29;;;;;;;38.97;18.23;;;;;;;3.76;100.00;101714.56;5000187;28;20052;-64
2021/11/23 06:40:56;;;;;;;34.53;17.77;;;;;;;3.80;100.00;101711.03;5025263;28;20528;-66
2021/11/23 06:43:24;;;;;;;28.02;18.55;;;;;;;3.81;100.00;101722.31;5028026;28;20120;-66
2021/11/23 06:45:52;;;;;;;30.17;18.98;;;;;;;3.92;100.00;101722.19;5010110;28;20041;-66
2021/11/23 06:48:23;;;;;;;31.67;17.80;;;;;;;3.87;100.00;101719.59;5006630;28;20136;-66
2021/11/23 06:50:53;;;;;;;33.45;18.80;;;;;;;3.90;100.00;101726.53;4994622;28;20101;-65
2021/11/23 06:53:20;;;;;;;35.25;19.02;;;;;;;3.89;100.00;101724.81;5023784;28;20164;-64
2021/11/23 06:55:47;;;;;;;40.80;18.73;;;;;;;3.91;100.00;101729.09;5007293;28;20057;-66
2021/11/23 06:58:15;;;;;;;32.17;17.45;;;;;;;3.93;100.00;101732.56;5007051;28;20402;-64
2021/11/23 07:00:43;;;;;;;28.02;17.98;;;;;;;3.96;100.00;101732.53;5029035;28;20072;-65
2021/11/23 07:03:12;;;;;;;39.40;19.65;;;;;;;3.98;100.00;101735.97;5029202;28;20088;-66
2021/11/23 07:05:39;;;;;;;39.13;18.60;;;;;;;3.97;100.00;101743.81;4994247;28;20390;-66
2021/11/23 07:08:25;;;;;;;31.23;18.52;;;;;;;4.01;100.00;101745.50;5013238;28;20049;-65
2021/11/23 07:10:53;;;;;;;29.33;18.63;;;;;;;3.96;100.00;101756.00;5020588;28;20144;-64
2021/11/23 07:13:20;;;;;;;34.13;18.52;;;;;;;3.97;100.00;101747.28;5030010;28;20412;-65
2021/11/23 07:15:48;;;;;;;37.05;19.38;;;;;;;3.94;100.00;101749.91;5024379;28;20151;-66
2021/11/23 07:18:18;;;;;;;35.38;18.52;;;;;;;4.04;100.00;101748.91;5025209;28;20042;-65
2021/11/23 07:20:46;;;;;;;34.65;18.88;;;;;;;4.06;100.00;101760.19;5025302;28;20050;-66
2021/11/23 07:23:14;;;;;;;39.42;19.52;;;;;;;4.12;100.00;101764.44;5018267;28;20525;-67
2021/11/23 07:25:41;;;;;;;38.65;19.92;;;;;;;4.12;100.00;101780.06;5018181;28;20055;-66
2021/11/23 07:28:08;;;;;;;35.00;18.05;;;;;;;4.18;100.00;101784.34;5023397;28;20152;-67
2021/11/23 07:30:36;;;;;;;40.75;19.85;;;;;;;4.17;100.00;101791.28;5008338;28;20091;-66
2021/11/23 07:33:04;;;;;;;41.08;20.20;;;;;;;4.20;100.00;101785.19;5025245;28;20513;-66
2021/11/23 07:35:31;;;;;;;34.30;19.90;;;;;;;4.23;100.00;101779.91;5002770;28;20281;-65
2021/11/23 07:37:59;;;;;;;36.40;18.75;;;;;;;4.22;100.00;101772.97;5028964;28;20473;-67
2021/11/23 07:40:27;;;;;;;35.38;18.58;;;;;;;4.20;100.00;101769.56;5008194;28;20441;-66
2021/11/23 07:42:54;;;;;;;34.20;17.52;;;;;;;4.22;100.00;101765.16;5026627;28;20128;-66
2021/11/23 07:45:38;;;;;;;27.58;16.95;;;;;;;4.16;100.00;101765.25;5003994;28;20051;-66
2021/11/23 07:48:06;;;;;;;36.38;17.77;;;;;;;4.23;100.00;101772.97;5024518;28;20080;-66
2021/11/23 07:50:33;;;;;;;33.63;17.40;;;;;;;4.21;100.00;101773.88;5024127;28;20490;-67
2021/11/23 07:53:00;;;;;;;30.13;17.13;;;;;;;4.20;100.00;101782.59;5008325;28;20194;-66
2021/11/23 07:55:28;;;;;;;28.48;15.85;;;;;;;4.23;100.00;101785.13;5022119;28;20147;-67
2021/11/23 07:57:55;;;;;;;28.02;15.55;;;;;;;4.21;100.00;101774.72;5027806;28;20084;-66
2021/11/23 08:00:23;;;;;;;27.40;17.00;;;;;;;4.27;100.00;101776.38;5004849;28;20128;-66
2021/11/23 08:02:50;;;;;;;26.42;15.98;;;;;;;4.29;100.00;101770.28;5025318;28;20052;-65
2021/11/23 08:05:18;;;;;;;28.90;16.05;;;;;;;4.32;100.00;101777.16;5009236;28;20136;-66
2021/11/23 08:07:45;;;;;;;28.98;16.85;;;;;;;4.38;100.00;101782.31;5028106;28;20509;-66
2021/11/23 08:10:13;;;;;;;30.95;17.48;;;;;;;4.40;100.00;101777.94;5018509;28;20053;-66
2021/11/23 08:12:40;;;;;;;32.45;16.75;;;;;;;4.37;100.00;101780.59;5031092;28;20099;-65
2021/11/23 08:15:08;;;;;;;31.35;18.15;;;;;;;4.38;100.00;101781.47;5024636;28;20125;-65
2021/11/23 08:17:35;;;;;;;32.65;18.63;;;;;;;4.34;100.00;101788.47;5027429;28;20533;-66
2021/11/23 08:20:03;;;;;;;30.50;18.15;;;;;;;4.34;100.00;101792.81;5035785;28;20145;-65
2021/11/23 08:22:30;;;;;;;36.42;18.42;;;;;;;4.36;100.00;101781.47;5029794;28;20140;-65
2021/11/23 08:24:58;;;;;;;32.03;17.30;;;;;;;4.48;100.00;101793.47;5023319;28;20073;-65
2021/11/23 08:27:25;;;;;;;30.55;17.75;;;;;;;4.48;100.00;101783.03;5026326;28;20136;-65
2021/11/23 08:29:52;;;;;;;31.85;16.88;;;;;;;4.51;100.00;101783.84;5024852;28;20557;-63
2021/11/23 08:32:19;;;;;;;32.88;16.95;;;;;;;4.41;100.00;101787.47;5016108;28;20140;-65
2021/11/23 08:34:47;;;;;;;24.83;15.95;;;;;;;4.58;100.00;101793.28;5030887;28;20139;-64
2021/11/23 08:37:14;;;;;;;31.15;16.90;;;;;;;4.55;100.00;101793.34;5031053;28;20133;-65
2021/11/23 08:39:41;;;;;;;36.30;18.63;;;;;;;4.64;100.00;101791.47;5022769;28;20236;-65
2021/11/23 08:42:12;;;;;;;31.20;17.27;;;;;;;4.64;100.00;101794.97;5027657;28;20429;-66
2021/11/23 08:44:39;;;;;;;36.05;17.77;;;;;;;4.61;100.00;101797.63;5028662;28;20049;-67
2021/11/23 08:47:07;;;;;;;32.17;18.13;;;;;;;4.65;100.00;101798.44;5008754;28;20041;-65
2021/11/23 08:49:34;;;;;;;31.85;17.88;;;;;;;4.67;100.00;101796.66;5024021;28;20053;-65
2021/11/23 08:52:02;;;;;;;33.58;17.58;;;;;;;4.74;100.00;101795.69;5026197;28;20389;-66
2021/11/23 08:54:30;;;;;;;35.40;17.25;;;;;;;4.75;100.00;101798.25;5009427;28;20048;-66
2021/11/23 08:57:03;;;;;;;28.50;16.75;;;;;;;4.76;100.00;101797.34;5029538;28;20049;-66
2021/11/23 08:59:33;;;;;;;31.92;17.35;;;;;;;4.73;100.00;101801.78;5024093;28;20535;-65
2021/11/23 09:02:01;;;;;;;28.98;15.35;;;;;;;4.70;100.00;101804.44;5013012;28;20291;-66
2021/11/23 09:04:30;;;;;;;27.58;15.57;;;;;;;4.74;100.00;101806.09;5025462;28;20057;-66
2021/11/23 09:07:00;;;;;;;28.17;14.25;;;;;;;4.75;100.00;101800.00;5036755;28;20486;-65
2021/11/23 09:09:28;;;;;;;24.95;14.35;;;;;;;4.76;100.00;101791.28;5009353;28;20055;-65
2021/11/23 09:11:57;;;;;;;25.40;14.00;;;;;;;4.86;100.00;101800.66;5029921;28;20057;-66
2021/11/23 09:14:25;;;;;;;25.67;13.88;;;;;;;4.91;100.00;101809.31;5005992;28;20053;-65
2021/11/23 09:16:52;;;;;;;27.35;15.18;;;;;;;5.01;100.00;101815.25;5030960;28;20045;-66
2021/11/23 09:19:19;;;;;;;26.05;14.05;;;;;;;5.04;100.00;101823.88;5024962;28;20132;-67
2021/11/23 09:21:47;;;;;;;26.58;13.50;;;;;;;5.10;100.00;101830.75;5023609;28;20068;-67
2021/11/23 09:24:14;;;;;;;24.20;13.88;;;;;;;5.02;100.00;101823.03;5020760;28;20136;-67
2021/11/23 09:26:44;;;;;;;24.63;13.85;;;;;;;4.99;100.00;101840.47;5010062;28;20124;-68
2021/11/23 09:29:13;;;;;;;27.05;14.55;;;;;;;5.00;100.00;101837.88;5065333;23;20073;-75
2021/11/23 09:31:41;;;;;;;24.80;13.60;;;;;;;5.11;100.00;101831.59;5091800;28;20059;-76
2021/11/23 09:34:09;;;;;;;27.17;13.90;;;;;;;5.11;100.00;101836.81;5125301;28;20048;-76
2021/11/23 09:36:38;;;;;;;26.83;14.05;;;;;;;5.15;100.00;101823.69;5078120;27;20039;-75
2021/11/23 09:39:05;;;;;;;24.27;14.13;;;;;;;5.22;100.00;101824.44;5078494;28;20076;-76
2021/11/23 09:41:34;;;;;;;27.42;14.10;;;;;;;5.24;100.00;101827.88;5058827;28;20127;-76
2021/11/23 09:44:03;;;;;;;25.88;14.85;;;;;;;5.22;100.00;101832.25;5044700;28;20056;-76
2021/11/23 09:46:36;;;;;;;23.42;13.95;;;;;;;5.20;100.00;101826.22;5062944;28;20531;-76
2021/11/23 09:49:05;;;;;;;25.58;14.20;;;;;;;5.31;100.00;101837.31;5085095;28;20115;-76
2021/11/23 09:51:36;;;;;;;25.95;14.77;;;;;;;5.24;100.00;101838.34;5058149;28;20128;-76
2021/11/23 09:54:09;;;;;;;29.60;15.98;;;;;;;5.27;100.00;101838.28;5070896;28;20044;-75
2021/11/23 09:56:38;;;;;;;26.27;14.57;;;;;;;5.28;100.00;101845.22;5071259;28;20052;-76
2021/11/23 09:59:10;;;;;;;26.58;15.07;;;;;;;5.27;100.00;101835.69;5067085;28;20035;-76
2021/11/23 10:01:54;;;;;;;29.55;15.52;;;;;;;5.15;100.00;101833.28;5065569;28;20086;-76
2021/11/23 10:04:26;;;;;;;28.73;16.70;;;;;;;5.20;100.00;101829.69;5068347;28;20053;-76
2021/11/23 10:07:01;;;;;;;32.00;16.80;;;;;;;5.24;100.00;101838.34;5048345;28;20045;-75
2021/11/23 10:09:39;;;;;;;28.98;15.80;;;;;;;5.23;100.00;101845.31;5031504;28;20697;-76
2021/11/23 10:12:24;;;;;;;33.83;16.50;;;;;;;5.22;100.00;101843.59;5037410;28;20067;-75
2021/11/23 10:15:08;;;;;;;31.33;15.93;;;;;;;5.28;100.00;101834.78;5072937;28;20071;-76
2021/11/23 10:17:41;;;;;;;31.92;16.25;;;;;;;5.35;100.00;101849.44;5056786;28;21476;-76
2021/11/23 10:20:31;;;;;;;30.25;17.08;;;;;;;5.32;100.00;101831.22;5027935;28;20041;-76
2021/11/23 10:23:30;;;;;;;26.05;15.90;;;;;;;5.32;100.00;101837.31;5088617;28;20051;-77
2021/11/23 10:26:08;;;;;;;26.15;15.65;;;;;;;5.38;100.00;101844.16;5048638;28;20079;-76
2021/11/23 10:28:35;;;;;;;36.63;16.88;;;;;;;5.41;100.00;101833.69;5065421;28;20046;-76
2021/11/23 10:31:05;;;;;;;34.70;17.48;;;;;;;5.48;100.00;101837.03;5051800;28;20060;-76
2021/11/23 10:33:34;;;;;;;30.48;15.93;;;;;;;5.49;100.00;101833.50;5054599;28;20530;-79
2021/11/23 10:36:09;;;;;;;32.22;17.05;;;;;;;5.53;100.00;101825.59;5063175;28;20313;-80
2021/11/23 10:38:38;;;;;;;34.58;17.23;;;;;;;5.49;100.00;101836.13;5084801;28;20134;-81
2021/11/23 10:41:08;;;;;;;28.67;15.77;;;;;;;5.47;100.00;101836.16;5074445;28;20085;-77
2021/11/23 10:43:38;;;;;;;28.15;16.55;;;;;;;5.51;100.00;101827.38;5082300;28;20062;-77
2021/11/23 10:46:21;;;;;;;29.05;15.95;;;;;;;5.54;100.00;101827.34;5056645;28;20047;-78
2021/11/23 10:48:57;;;;;;;27.25;16.05;;;;;;;5.59;100.00;101816.81;5052652;28;20634;-77
2021/11/23 10:51:26;;;;;;;31.10;16.75;;;;;;;5.53;100.00;101822.13;5036263;28;20102;-78
2021/11/23 10:54:14;;;;;;;27.90;15.73;;;;;;;5.57;100.00;101813.34;5079917;28;20036;-78
2021/11/23 10:56:59;;;;;;;26.42;14.90;;;;;;;5.65;100.00;101801.00;5063103;28;20044;-79
2021/11/23 10:59:37;;;;;;;27.20;13.80;;;;;;;5.64;100.00;101807.13;5049623;28;20064;-79
2021/11/23 11:02:04;;;;;;;23.30;13.05;;;;;;;5.69;100.00;101804.41;5051039;28;20052;-77
2021/11/23 11:04:34;;;;;;;20.85;13.98;;;;;;;5.76;100.00;101806.88;5072267;22;20158;-57
2021/11/23 11:07:03;;;;;;;26.48;14.10;;;;;;;5.73;100.00;101804.31;5082632;28;20056;-59
2021/11/23 11:09:31;;;;;;;22.08;13.68;;;;;;;5.71;100.00;101793.03;5069725;28;20043;-59
2021/11/23 11:11:58;;;;;;;23.50;13.13;;;;;;;5.69;100.00;101789.59;5046556;28;20059;-57
2021/11/23 11:14:28;;;;;;;24.13;13.32;;;;;;;5.73;100.00;101787.78;5063952;28;20056;-60
2021/11/23 11:16:56;;;;;;;23.30;12.82;;;;;;;5.79;100.00;101790.28;5073815;28;20053;-58
2021/11/23 11:19:23;;;;;;;22.40;12.93;;;;;;;5.82;100.00;101779.75;5066198;28;20055;-59
2021/11/23 11:21:50;;;;;;;21.58;13.13;;;;;;;5.71;100.00;101782.56;5049591;28;20131;-58
2021/11/23 11:24:44;;;;;;;24.52;14.00;;;;;;;5.71;100.00;101784.34;5062451;28;20136;-58
2021/11/23 11:27:29;;;;;;;21.27;13.20;;;;;;;5.74;100.00;101787.75;5068727;28;20051;-59
2021/11/23 11:30:18;;;;;;;21.90;14.13;;;;;;;5.74;100.00;101792.13;5057894;28;20071;-59